sensor_id;sensor_type;location;lat;lon;timestamp;temperature;humidity
23681;DHT22;62915;50.832;4.462;2023-12-28T00:00:49;11.50;99.90
23681;DHT22;62915;50.832;4.462;2023-12-28T00:03:15;11.50;99.90
23681;DHT22;62915;50.832;4.462;2023-12-28T00:05:40;11.50;99.90
23681;DHT22;62915;50.832;4.462;2023-12-28T00:08:06;11.50;99.90
23681;DHT22;62915;50.832;4.462;2023-12-28T00:10:32;11.40;99.90
23681;DHT22;62915;50.832;4.462;2023-12-28T00:12:58;11.50;99.90
23681;DHT22;62915;50.832;4.462;2023-12-28T00:15:23;11.40;99.90
23681;DHT22;62915;50.832;4.462;2023-12-28T00:17:49;11.40;99.90
23681;DHT22;62915;50.832;4.462;2023-12-28T00:20:15;11.50;99.90
23681;DHT22;62915;50.832;4.462;2023-12-28T00:22:41;11.60;99.90
23681;DHT22;62915;50.832;4.462;2023-12-28T00:25:07;11.50;99.90
23681;DHT22;62915;50.832;4.462;2023-12-28T00:27:32;11.50;99.90
23681;DHT22;62915;50.832;4.462;2023-12-28T00:30:05;11.50;99.90
23681;DHT22;62915;50.832;4.462;2023-12-28T00:32:30;11.60;99.90
23681;DHT22;62915;50.832;4.462;2023-12-28T00:34:56;11.50;99.90
23681;DHT22;62915;50.832;4.462;2023-12-28T00:37:22;11.50;99.90
23681;DHT22;62915;50.832;4.462;2023-12-28T00:39:48;11.50;99.90
23681;DHT22;62915;50.832;4.462;2023-12-28T00:42:15;11.60;99.90
23681;DHT22;62915;50.832;4.462;2023-12-28T00:44:43;11.60;99.90
23681;DHT22;62915;50.832;4.462;2023-12-28T00:47:10;11.70;99.90
23681;DHT22;62915;50.832;4.462;2023-12-28T00:49:36;11.70;99.90
23681;DHT22;62915;50.832;4.462;2023-12-28T00:52:02;11.70;99.90
23681;DHT22;62915;50.832;4.462;2023-12-28T00:54:28;11.60;99.90
23681;DHT22;62915;50.832;4.462;2023-12-28T00:56:54;11.60;99.90
23681;DHT22;62915;50.832;4.462;2023-12-28T00:59:19;11.50;99.90
23681;DHT22;62915;50.832;4.462;2023-12-28T01:01:45;11.60;99.90
23681;DHT22;62915;50.832;4.462;2023-12-28T01:04:11;11.60;99.90
23681;DHT22;62915;50.832;4.462;2023-12-28T01:06:37;11.60;99.90
23681;DHT22;62915;50.832;4.462;2023-12-28T01:09:02;11.50;99.90
23681;DHT22;62915;50.832;4.462;2023-12-28T01:11:28;11.70;99.90
23681;DHT22;62915;50.832;4.462;2023-12-28T01:13:54;11.60;99.90
23681;DHT22;62915;50.832;4.462;2023-12-28T01:16:20;11.60;99.90
23681;DHT22;62915;50.832;4.462;2023-12-28T01:18:46;11.70;99.90
23681;DHT22;62915;50.832;4.462;2023-12-28T01:21:12;11.70;99.90
23681;DHT22;62915;50.832;4.462;2023-12-28T01:23:37;11.60;99.90
23681;DHT22;62915;50.832;4.462;2023-12-28T01:26:03;11.60;99.90
23681;DHT22;62915;50.832;4.462;2023-12-28T01:28:29;11.60;99.90
23681;DHT22;62915;50.832;4.462;2023-12-28T01:30:55;11.60;99.90
23681;DHT22;62915;50.832;4.462;2023-12-28T01:33:21;11.60;99.90
23681;DHT22;62915;50.832;4.462;2023-12-28T01:35:47;11.50;99.90
23681;DHT22;62915;50.832;4.462;2023-12-28T01:38:12;11.50;99.90
23681;DHT22;62915;50.832;4.462;2023-12-28T01:40:43;11.60;99.90
23681;DHT22;62915;50.832;4.462;2023-12-28T01:43:09;11.60;99.90
23681;DHT22;62915;50.832;4.462;2023-12-28T01:45:35;11.60;99.90
23681;DHT22;62915;50.832;4.462;2023-12-28T01:48:00;11.50;99.90
23681;DHT22;62915;50.832;4.462;2023-12-28T01:50:27;11.50;99.90
23681;DHT22;62915;50.832;4.462;2023-12-28T01:52:55;11.50;99.90
23681;DHT22;62915;50.832;4.462;2023-12-28T01:55:23;11.60;99.90
23681;DHT22;62915;50.832;4.462;2023-12-28T01:57:49;11.60;99.90
23681;DHT22;62915;50.832;4.462;2023-12-28T02:00:16;11.60;99.90
23681;DHT22;62915;50.832;4.462;2023-12-28T02:02:42;11.50;99.90
23681;DHT22;62915;50.832;4.462;2023-12-28T02:05:10;11.60;99.90
23681;DHT22;62915;50.832;4.462;2023-12-28T02:07:36;11.50;99.90
23681;DHT22;62915;50.832;4.462;2023-12-28T02:10:02;11.50;99.90
23681;DHT22;62915;50.832;4.462;2023-12-28T02:12:28;11.50;99.90
23681;DHT22;62915;50.832;4.462;2023-12-28T02:14:54;11.60;99.90
23681;DHT22;62915;50.832;4.462;2023-12-28T02:17:23;11.50;99.90
23681;DHT22;62915;50.832;4.462;2023-12-28T02:19:55;11.50;99.90
23681;DHT22;62915;50.832;4.462;2023-12-28T02:22:24;11.50;99.90
23681;DHT22;62915;50.832;4.462;2023-12-28T02:25:04;11.60;99.90
23681;DHT22;62915;50.832;4.462;2023-12-28T02:27:32;11.70;99.90
23681;DHT22;62915;50.832;4.462;2023-12-28T02:29:58;11.60;99.90
23681;DHT22;62915;50.832;4.462;2023-12-28T02:38:08;11.60;99.90
23681;DHT22;62915;50.832;4.462;2023-12-28T02:40:39;11.70;99.90
23681;DHT22;62915;50.832;4.462;2023-12-28T02:43:09;11.60;99.90
23681;DHT22;62915;50.832;4.462;2023-12-28T02:45:35;11.60;99.90
23681;DHT22;62915;50.832;4.462;2023-12-28T02:48:02;11.60;99.90
23681;DHT22;62915;50.832;4.462;2023-12-28T02:50:28;11.60;99.90
23681;DHT22;62915;50.832;4.462;2023-12-28T02:52:56;11.60;99.90
23681;DHT22;62915;50.832;4.462;2023-12-28T02:55:24;11.70;99.90
23681;DHT22;62915;50.832;4.462;2023-12-28T02:57:51;11.70;99.90
23681;DHT22;62915;50.832;4.462;2023-12-28T03:00:17;11.70;99.90
23681;DHT22;62915;50.832;4.462;2023-12-28T03:02:43;11.70;99.90
23681;DHT22;62915;50.832;4.462;2023-12-28T03:05:10;11.70;99.90
23681;DHT22;62915;50.832;4.462;2023-12-28T03:07:36;11.70;99.90
23681;DHT22;62915;50.832;4.462;2023-12-28T03:10:03;11.70;99.90
23681;DHT22;62915;50.832;4.462;2023-12-28T03:12:29;11.70;99.90
23681;DHT22;62915;50.832;4.462;2023-12-28T03:14:55;11.70;99.90
23681;DHT22;62915;50.832;4.462;2023-12-28T03:17:21;11.70;99.90
23681;DHT22;62915;50.832;4.462;2023-12-28T03:19:47;11.70;99.90
23681;DHT22;62915;50.832;4.462;2023-12-28T03:22:13;11.70;99.90
23681;DHT22;62915;50.832;4.462;2023-12-28T03:24:40;11.80;99.90
23681;DHT22;62915;50.832;4.462;2023-12-28T03:27:06;11.80;99.90
23681;DHT22;62915;50.832;4.462;2023-12-28T03:29:32;11.80;99.90
23681;DHT22;62915;50.832;4.462;2023-12-28T03:31:58;11.70;99.90
23681;DHT22;62915;50.832;4.462;2023-12-28T03:34:25;11.80;99.90
23681;DHT22;62915;50.832;4.462;2023-12-28T03:36:56;11.80;99.90
23681;DHT22;62915;50.832;4.462;2023-12-28T03:39:22;11.60;99.90
23681;DHT22;62915;50.832;4.462;2023-12-28T03:41:49;11.60;99.90
23681;DHT22;62915;50.832;4.462;2023-12-28T03:44:14;11.70;99.90
23681;DHT22;62915;50.832;4.462;2023-12-28T03:46:40;11.70;99.90
23681;DHT22;62915;50.832;4.462;2023-12-28T03:49:06;11.80;99.90
23681;DHT22;62915;50.832;4.462;2023-12-28T03:51:32;11.70;99.90
23681;DHT22;62915;50.832;4.462;2023-12-28T03:53:58;11.70;99.90
23681;DHT22;62915;50.832;4.462;2023-12-28T03:56:27;11.70;99.90
23681;DHT22;62915;50.832;4.462;2023-12-28T03:58:54;11.60;99.90
23681;DHT22;62915;50.832;4.462;2023-12-28T04:01:21;11.60;99.90
23681;DHT22;62915;50.832;4.462;2023-12-28T04:03:48;11.70;99.90
23681;DHT22;62915;50.832;4.462;2023-12-28T04:06:14;11.70;99.90
23681;DHT22;62915;50.832;4.462;2023-12-28T04:08:41;11.80;99.90
23681;DHT22;62915;50.832;4.462;2023-12-28T04:11:07;11.70;99.90
23681;DHT22;62915;50.832;4.462;2023-12-28T04:13:33;11.70;99.90
23681;DHT22;62915;50.832;4.462;2023-12-28T04:15:59;11.70;99.90
23681;DHT22;62915;50.832;4.462;2023-12-28T04:18:25;11.80;99.90
23681;DHT22;62915;50.832;4.462;2023-12-28T04:20:51;11.70;99.90
23681;DHT22;62915;50.832;4.462;2023-12-28T04:23:16;11.70;99.90
23681;DHT22;62915;50.832;4.462;2023-12-28T04:25:42;11.80;99.90
23681;DHT22;62915;50.832;4.462;2023-12-28T04:28:08;11.80;99.90
23681;DHT22;62915;50.832;4.462;2023-12-28T04:30:34;11.80;99.90
23681;DHT22;62915;50.832;4.462;2023-12-28T04:33:01;11.80;99.90
23681;DHT22;62915;50.832;4.462;2023-12-28T04:35:26;11.70;99.90
23681;DHT22;62915;50.832;4.462;2023-12-28T04:37:52;11.70;99.90
23681;DHT22;62915;50.832;4.462;2023-12-28T04:40:18;11.60;99.90
23681;DHT22;62915;50.832;4.462;2023-12-28T04:42:44;11.70;99.90
23681;DHT22;62915;50.832;4.462;2023-12-28T04:45:10;11.70;99.90
23681;DHT22;62915;50.832;4.462;2023-12-28T04:47:36;11.70;99.90
23681;DHT22;62915;50.832;4.462;2023-12-28T04:50:03;11.80;99.90
23681;DHT22;62915;50.832;4.462;2023-12-28T04:52:29;11.70;99.90
23681;DHT22;62915;50.832;4.462;2023-12-28T04:54:55;11.60;99.90
23681;DHT22;62915;50.832;4.462;2023-12-28T04:57:20;11.70;99.90
23681;DHT22;62915;50.832;4.462;2023-12-28T04:59:46;11.70;99.90
23681;DHT22;62915;50.832;4.462;2023-12-28T05:02:12;11.70;99.90
23681;DHT22;62915;50.832;4.462;2023-12-28T05:04:37;11.60;99.90
23681;DHT22;62915;50.832;4.462;2023-12-28T05:07:06;11.60;99.90
23681;DHT22;62915;50.832;4.462;2023-12-28T05:09:32;11.60;99.90
23681;DHT22;62915;50.832;4.462;2023-12-28T05:11:57;11.60;99.90
23681;DHT22;62915;50.832;4.462;2023-12-28T05:14:23;11.60;99.90
23681;DHT22;62915;50.832;4.462;2023-12-28T05:16:52;11.50;99.90
23681;DHT22;62915;50.832;4.462;2023-12-28T05:19:18;11.40;99.90
23681;DHT22;62915;50.832;4.462;2023-12-28T05:21:43;11.40;99.90
23681;DHT22;62915;50.832;4.462;2023-12-28T05:24:10;11.50;99.90
23681;DHT22;62915;50.832;4.462;2023-12-28T05:26:36;11.50;99.90
23681;DHT22;62915;50.832;4.462;2023-12-28T05:29:02;11.40;99.90
23681;DHT22;62915;50.832;4.462;2023-12-28T05:31:29;11.30;99.90
23681;DHT22;62915;50.832;4.462;2023-12-28T05:33:55;11.20;99.90
23681;DHT22;62915;50.832;4.462;2023-12-28T05:36:20;11.30;99.90
23681;DHT22;62915;50.832;4.462;2023-12-28T05:38:46;11.30;99.90
23681;DHT22;62915;50.832;4.462;2023-12-28T05:41:12;11.40;99.90
23681;DHT22;62915;50.832;4.462;2023-12-28T05:43:38;11.50;99.90
23681;DHT22;62915;50.832;4.462;2023-12-28T05:46:04;11.50;99.90
23681;DHT22;62915;50.832;4.462;2023-12-28T05:48:30;11.50;99.90
23681;DHT22;62915;50.832;4.462;2023-12-28T05:50:59;11.50;99.90
23681;DHT22;62915;50.832;4.462;2023-12-28T05:53:26;11.40;99.90
23681;DHT22;62915;50.832;4.462;2023-12-28T05:55:52;11.50;99.90
23681;DHT22;62915;50.832;4.462;2023-12-28T05:58:18;11.50;99.90
23681;DHT22;62915;50.832;4.462;2023-12-28T06:00:44;11.40;99.90
23681;DHT22;62915;50.832;4.462;2023-12-28T06:03:11;11.50;99.90
23681;DHT22;62915;50.832;4.462;2023-12-28T06:05:37;11.60;99.90
23681;DHT22;62915;50.832;4.462;2023-12-28T06:08:04;11.40;99.90
23681;DHT22;62915;50.832;4.462;2023-12-28T06:10:29;11.50;99.90
23681;DHT22;62915;50.832;4.462;2023-12-28T06:12:55;11.60;99.90
23681;DHT22;62915;50.832;4.462;2023-12-28T06:15:21;11.70;99.90
23681;DHT22;62915;50.832;4.462;2023-12-28T06:17:47;11.60;99.90
23681;DHT22;62915;50.832;4.462;2023-12-28T06:20:13;11.60;99.90
23681;DHT22;62915;50.832;4.462;2023-12-28T06:22:38;11.60;99.90
23681;DHT22;62915;50.832;4.462;2023-12-28T06:25:05;11.60;99.90
23681;DHT22;62915;50.832;4.462;2023-12-28T06:27:31;11.60;99.90
23681;DHT22;62915;50.832;4.462;2023-12-28T06:29:58;11.50;99.90
23681;DHT22;62915;50.832;4.462;2023-12-28T06:32:24;11.40;99.90
23681;DHT22;62915;50.832;4.462;2023-12-28T06:34:50;11.40;99.90
23681;DHT22;62915;50.832;4.462;2023-12-28T06:37:16;11.50;99.90
23681;DHT22;62915;50.832;4.462;2023-12-28T06:39:42;11.30;99.90
23681;DHT22;62915;50.832;4.462;2023-12-28T06:42:07;11.30;99.90
23681;DHT22;62915;50.832;4.462;2023-12-28T06:44:33;11.30;99.90
23681;DHT22;62915;50.832;4.462;2023-12-28T06:46:59;11.40;99.90
23681;DHT22;62915;50.832;4.462;2023-12-28T06:49:25;11.50;99.90
23681;DHT22;62915;50.832;4.462;2023-12-28T06:51:51;11.40;99.90
23681;DHT22;62915;50.832;4.462;2023-12-28T06:54:17;11.40;99.90
23681;DHT22;62915;50.832;4.462;2023-12-28T06:56:42;11.40;99.90
23681;DHT22;62915;50.832;4.462;2023-12-28T06:59:09;11.50;99.90
23681;DHT22;62915;50.832;4.462;2023-12-28T07:01:41;11.50;99.90
23681;DHT22;62915;50.832;4.462;2023-12-28T07:04:07;11.40;99.90
23681;DHT22;62915;50.832;4.462;2023-12-28T07:06:33;11.40;99.90
23681;DHT22;62915;50.832;4.462;2023-12-28T07:08:59;11.40;99.90
23681;DHT22;62915;50.832;4.462;2023-12-28T07:11:25;11.40;99.90
23681;DHT22;62915;50.832;4.462;2023-12-28T07:13:52;11.20;99.90
23681;DHT22;62915;50.832;4.462;2023-12-28T07:16:18;11.30;99.90
23681;DHT22;62915;50.832;4.462;2023-12-28T07:18:44;11.30;99.90
23681;DHT22;62915;50.832;4.462;2023-12-28T07:21:10;11.30;99.90
23681;DHT22;62915;50.832;4.462;2023-12-28T07:23:36;11.40;99.90
23681;DHT22;62915;50.832;4.462;2023-12-28T07:26:02;11.20;99.90
23681;DHT22;62915;50.832;4.462;2023-12-28T07:28:28;11.30;99.90
23681;DHT22;62915;50.832;4.462;2023-12-28T07:30:54;11.20;99.90
23681;DHT22;62915;50.832;4.462;2023-12-28T07:33:20;11.30;99.90
23681;DHT22;62915;50.832;4.462;2023-12-28T07:35:46;11.30;99.90
23681;DHT22;62915;50.832;4.462;2023-12-28T07:38:12;11.20;99.90
23681;DHT22;62915;50.832;4.462;2023-12-28T07:40:38;11.10;99.90
23681;DHT22;62915;50.832;4.462;2023-12-28T07:43:04;11.10;99.90
23681;DHT22;62915;50.832;4.462;2023-12-28T07:45:30;11.20;99.90
23681;DHT22;62915;50.832;4.462;2023-12-28T07:48:00;11.30;99.90
23681;DHT22;62915;50.832;4.462;2023-12-28T07:50:26;11.20;99.90
23681;DHT22;62915;50.832;4.462;2023-12-28T07:52:52;11.20;99.90
23681;DHT22;62915;50.832;4.462;2023-12-28T07:55:18;11.20;99.90
23681;DHT22;62915;50.832;4.462;2023-12-28T07:57:43;11.30;99.90
23681;DHT22;62915;50.832;4.462;2023-12-28T08:00:10;11.10;99.90
23681;DHT22;62915;50.832;4.462;2023-12-28T08:02:36;11.10;99.90
23681;DHT22;62915;50.832;4.462;2023-12-28T08:05:02;11.10;99.90
23681;DHT22;62915;50.832;4.462;2023-12-28T08:07:28;11.20;99.90
23681;DHT22;62915;50.832;4.462;2023-12-28T08:09:54;11.20;99.90
23681;DHT22;62915;50.832;4.462;2023-12-28T08:12:19;11.10;99.90
23681;DHT22;62915;50.832;4.462;2023-12-28T08:14:46;11.10;99.90
23681;DHT22;62915;50.832;4.462;2023-12-28T08:17:12;11.10;99.90
23681;DHT22;62915;50.832;4.462;2023-12-28T08:19:38;11.20;99.90
23681;DHT22;62915;50.832;4.462;2023-12-28T08:22:04;11.30;99.90
23681;DHT22;62915;50.832;4.462;2023-12-28T08:24:30;11.30;99.90
23681;DHT22;62915;50.832;4.462;2023-12-28T08:26:56;11.20;99.90
23681;DHT22;62915;50.832;4.462;2023-12-28T08:29:25;11.30;99.90
23681;DHT22;62915;50.832;4.462;2023-12-28T08:31:51;11.30;99.90
23681;DHT22;62915;50.832;4.462;2023-12-28T08:34:17;11.40;99.90
23681;DHT22;62915;50.832;4.462;2023-12-28T08:36:43;11.40;99.90
23681;DHT22;62915;50.832;4.462;2023-12-28T08:39:09;11.30;99.90
23681;DHT22;62915;50.832;4.462;2023-12-28T08:41:35;11.30;99.90
23681;DHT22;62915;50.832;4.462;2023-12-28T08:44:01;11.30;99.90
23681;DHT22;62915;50.832;4.462;2023-12-28T08:46:27;11.40;99.90
23681;DHT22;62915;50.832;4.462;2023-12-28T08:48:53;11.40;99.90
23681;DHT22;62915;50.832;4.462;2023-12-28T08:51:19;11.50;99.90
23681;DHT22;62915;50.832;4.462;2023-12-28T08:53:46;11.50;99.90
23681;DHT22;62915;50.832;4.462;2023-12-28T08:56:22;11.50;99.90
23681;DHT22;62915;50.832;4.462;2023-12-28T08:58:48;11.50;99.90
23681;DHT22;62915;50.832;4.462;2023-12-28T09:01:22;11.50;99.90
23681;DHT22;62915;50.832;4.462;2023-12-28T09:03:49;11.50;99.90
23681;DHT22;62915;50.832;4.462;2023-12-28T09:06:18;11.50;99.90
23681;DHT22;62915;50.832;4.462;2023-12-28T09:08:45;11.60;99.90
23681;DHT22;62915;50.832;4.462;2023-12-28T09:11:13;11.50;99.90
23681;DHT22;62915;50.832;4.462;2023-12-28T09:13:39;11.60;99.90
23681;DHT22;62915;50.832;4.462;2023-12-28T09:16:07;11.50;99.90
23681;DHT22;62915;50.832;4.462;2023-12-28T09:18:33;11.50;99.90
23681;DHT22;62915;50.832;4.462;2023-12-28T09:20:59;11.50;99.90
23681;DHT22;62915;50.832;4.462;2023-12-28T09:23:25;11.50;99.90
23681;DHT22;62915;50.832;4.462;2023-12-28T09:25:50;11.60;99.90
23681;DHT22;62915;50.832;4.462;2023-12-28T09:28:16;11.50;99.90
23681;DHT22;62915;50.832;4.462;2023-12-28T09:30:42;11.50;99.90
23681;DHT22;62915;50.832;4.462;2023-12-28T09:33:07;11.50;99.90
23681;DHT22;62915;50.832;4.462;2023-12-28T09:35:33;11.50;99.90
23681;DHT22;62915;50.832;4.462;2023-12-28T09:37:59;11.60;99.90
23681;DHT22;62915;50.832;4.462;2023-12-28T09:40:25;11.60;99.90
23681;DHT22;62915;50.832;4.462;2023-12-28T09:45:37;11.80;99.90
23681;DHT22;62915;50.832;4.462;2023-12-28T09:48:04;11.80;99.90
23681;DHT22;62915;50.832;4.462;2023-12-28T09:50:30;11.70;99.90
23681;DHT22;62915;50.832;4.462;2023-12-28T09:52:56;11.90;99.90
23681;DHT22;62915;50.832;4.462;2023-12-28T09:55:22;11.90;99.90
23681;DHT22;62915;50.832;4.462;2023-12-28T09:57:48;12.00;99.90
23681;DHT22;62915;50.832;4.462;2023-12-28T10:00:14;11.90;99.90
23681;DHT22;62915;50.832;4.462;2023-12-28T10:02:43;12.00;99.90
23681;DHT22;62915;50.832;4.462;2023-12-28T10:05:13;12.30;99.90
23681;DHT22;62915;50.832;4.462;2023-12-28T10:07:43;12.40;99.90
23681;DHT22;62915;50.832;4.462;2023-12-28T10:10:10;12.40;99.90
23681;DHT22;62915;50.832;4.462;2023-12-28T10:12:36;12.40;99.90
23681;DHT22;62915;50.832;4.462;2023-12-28T10:15:03;12.40;99.90
23681;DHT22;62915;50.832;4.462;2023-12-28T10:17:29;12.60;99.90
23681;DHT22;62915;50.832;4.462;2023-12-28T10:19:55;12.70;99.90
23681;DHT22;62915;50.832;4.462;2023-12-28T10:22:27;12.60;99.90
23681;DHT22;62915;50.832;4.462;2023-12-28T10:24:54;12.70;99.90
23681;DHT22;62915;50.832;4.462;2023-12-28T10:27:20;12.70;99.90
23681;DHT22;62915;50.832;4.462;2023-12-28T10:29:46;12.60;99.90
23681;DHT22;62915;50.832;4.462;2023-12-28T10:32:12;12.60;99.90
23681;DHT22;62915;50.832;4.462;2023-12-28T10:34:38;12.60;99.90
23681;DHT22;62915;50.832;4.462;2023-12-28T10:37:05;12.60;99.90
23681;DHT22;62915;50.832;4.462;2023-12-28T10:39:32;12.60;99.90
23681;DHT22;62915;50.832;4.462;2023-12-28T10:42:02;12.70;99.90
23681;DHT22;62915;50.832;4.462;2023-12-28T10:44:31;12.70;99.90
23681;DHT22;62915;50.832;4.462;2023-12-28T10:47:01;12.80;99.90
23681;DHT22;62915;50.832;4.462;2023-12-28T10:49:28;12.70;99.90
23681;DHT22;62915;50.832;4.462;2023-12-28T10:51:55;12.70;99.90
23681;DHT22;62915;50.832;4.462;2023-12-28T10:54:30;12.60;99.90
23681;DHT22;62915;50.832;4.462;2023-12-28T10:57:21;12.70;99.90
23681;DHT22;62915;50.832;4.462;2023-12-28T11:00:07;12.70;99.90
23681;DHT22;62915;50.832;4.462;2023-12-28T11:02:46;12.70;99.90
23681;DHT22;62915;50.832;4.462;2023-12-28T11:05:13;12.70;99.90
23681;DHT22;62915;50.832;4.462;2023-12-28T11:07:41;12.70;99.90
23681;DHT22;62915;50.832;4.462;2023-12-28T11:10:09;12.60;99.90
23681;DHT22;62915;50.832;4.462;2023-12-28T11:12:37;12.60;99.90
23681;DHT22;62915;50.832;4.462;2023-12-28T11:15:05;12.70;99.90
23681;DHT22;62915;50.832;4.462;2023-12-28T11:17:32;12.60;99.90
23681;DHT22;62915;50.832;4.462;2023-12-28T11:19:59;12.80;99.90
23681;DHT22;62915;50.832;4.462;2023-12-28T11:22:26;12.70;99.90
23681;DHT22;62915;50.832;4.462;2023-12-28T11:24:53;12.70;99.90
23681;DHT22;62915;50.832;4.462;2023-12-28T11:27:19;12.80;99.90
23681;DHT22;62915;50.832;4.462;2023-12-28T11:29:48;12.90;99.90
23681;DHT22;62915;50.832;4.462;2023-12-28T11:32:14;12.70;99.90
23681;DHT22;62915;50.832;4.462;2023-12-28T11:34:40;12.70;99.90
23681;DHT22;62915;50.832;4.462;2023-12-28T11:37:13;12.60;99.90
23681;DHT22;62915;50.832;4.462;2023-12-28T11:39:44;12.60;99.90
23681;DHT22;62915;50.832;4.462;2023-12-28T11:42:10;12.70;99.90
23681;DHT22;62915;50.832;4.462;2023-12-28T11:44:44;12.60;99.90
23681;DHT22;62915;50.832;4.462;2023-12-28T11:49:38;12.70;99.90
23681;DHT22;62915;50.832;4.462;2023-12-28T11:52:07;12.70;99.90
23681;DHT22;62915;50.832;4.462;2023-12-28T11:54:33;12.70;99.90
23681;DHT22;62915;50.832;4.462;2023-12-28T11:56:59;12.80;99.90
23681;DHT22;62915;50.832;4.462;2023-12-28T11:59:25;12.80;99.90
23681;DHT22;62915;50.832;4.462;2023-12-28T12:01:51;12.70;99.90
23681;DHT22;62915;50.832;4.462;2023-12-28T12:04:21;12.70;99.90
23681;DHT22;62915;50.832;4.462;2023-12-28T12:06:47;12.80;99.90
23681;DHT22;62915;50.832;4.462;2023-12-28T12:09:14;12.90;99.90
23681;DHT22;62915;50.832;4.462;2023-12-28T12:11:40;12.70;99.90
23681;DHT22;62915;50.832;4.462;2023-12-28T12:14:11;12.80;99.90
23681;DHT22;62915;50.832;4.462;2023-12-28T12:16:38;12.80;99.90
23681;DHT22;62915;50.832;4.462;2023-12-28T12:19:06;12.80;99.90
23681;DHT22;62915;50.832;4.462;2023-12-28T12:21:34;12.80;99.90
23681;DHT22;62915;50.832;4.462;2023-12-28T12:24:00;12.70;99.90
23681;DHT22;62915;50.832;4.462;2023-12-28T12:26:27;12.60;99.90
23681;DHT22;62915;50.832;4.462;2023-12-28T12:28:55;12.60;99.90
23681;DHT22;62915;50.832;4.462;2023-12-28T12:31:21;12.60;99.90
23681;DHT22;62915;50.832;4.462;2023-12-28T12:33:47;12.70;99.90
23681;DHT22;62915;50.832;4.462;2023-12-28T12:36:12;12.80;99.90
23681;DHT22;62915;50.832;4.462;2023-12-28T12:38:38;12.80;99.90
23681;DHT22;62915;50.832;4.462;2023-12-28T12:41:04;12.70;99.90
23681;DHT22;62915;50.832;4.462;2023-12-28T12:43:30;12.70;99.90
23681;DHT22;62915;50.832;4.462;2023-12-28T12:45:56;12.80;99.90
23681;DHT22;62915;50.832;4.462;2023-12-28T12:48:22;12.80;99.90
23681;DHT22;62915;50.832;4.462;2023-12-28T12:50:48;12.90;99.90
23681;DHT22;62915;50.832;4.462;2023-12-28T12:53:15;12.80;99.90
23681;DHT22;62915;50.832;4.462;2023-12-28T12:55:40;12.80;99.90
23681;DHT22;62915;50.832;4.462;2023-12-28T12:58:10;12.70;99.90
23681;DHT22;62915;50.832;4.462;2023-12-28T13:00:38;12.60;99.90
23681;DHT22;62915;50.832;4.462;2023-12-28T13:03:08;12.50;99.90
23681;DHT22;62915;50.832;4.462;2023-12-28T13:05:36;12.50;99.90
23681;DHT22;62915;50.832;4.462;2023-12-28T13:08:06;12.50;99.90
23681;DHT22;62915;50.832;4.462;2023-12-28T13:10:31;12.40;99.90
23681;DHT22;62915;50.832;4.462;2023-12-28T13:12:57;12.40;99.90
23681;DHT22;62915;50.832;4.462;2023-12-28T13:15:23;12.40;99.90
23681;DHT22;62915;50.832;4.462;2023-12-28T13:17:49;12.30;99.90
23681;DHT22;62915;50.832;4.462;2023-12-28T13:20:15;12.40;99.90
23681;DHT22;62915;50.832;4.462;2023-12-28T13:22:40;12.30;99.90
23681;DHT22;62915;50.832;4.462;2023-12-28T13:25:07;12.40;99.90
23681;DHT22;62915;50.832;4.462;2023-12-28T13:27:33;12.30;99.90
23681;DHT22;62915;50.832;4.462;2023-12-28T13:29:59;12.30;99.90
23681;DHT22;62915;50.832;4.462;2023-12-28T13:32:24;12.30;99.90
23681;DHT22;62915;50.832;4.462;2023-12-28T13:34:50;12.30;99.90
23681;DHT22;62915;50.832;4.462;2023-12-28T13:37:17;12.40;99.90
23681;DHT22;62915;50.832;4.462;2023-12-28T13:39:43;12.40;99.90
23681;DHT22;62915;50.832;4.462;2023-12-28T13:42:09;12.40;99.90
23681;DHT22;62915;50.832;4.462;2023-12-28T13:44:35;12.40;99.90
23681;DHT22;62915;50.832;4.462;2023-12-28T13:47:03;12.50;99.90
23681;DHT22;62915;50.832;4.462;2023-12-28T13:49:31;12.40;99.90
23681;DHT22;62915;50.832;4.462;2023-12-28T13:51:57;12.40;99.90
23681;DHT22;62915;50.832;4.462;2023-12-28T13:54:23;12.40;99.90
23681;DHT22;62915;50.832;4.462;2023-12-28T13:56:49;12.40;99.90
23681;DHT22;62915;50.832;4.462;2023-12-28T13:59:15;12.40;99.90
23681;DHT22;62915;50.832;4.462;2023-12-28T14:01:41;12.30;99.90
23681;DHT22;62915;50.832;4.462;2023-12-28T14:04:06;12.40;99.90
23681;DHT22;62915;50.832;4.462;2023-12-28T14:06:32;12.30;99.90
23681;DHT22;62915;50.832;4.462;2023-12-28T14:08:58;12.40;99.90
23681;DHT22;62915;50.832;4.462;2023-12-28T14:11:24;12.50;99.90
23681;DHT22;62915;50.832;4.462;2023-12-28T14:13:50;12.50;99.90
23681;DHT22;62915;50.832;4.462;2023-12-28T14:16:16;12.50;99.90
23681;DHT22;62915;50.832;4.462;2023-12-28T14:18:42;12.60;99.90
23681;DHT22;62915;50.832;4.462;2023-12-28T14:21:09;12.50;99.90
23681;DHT22;62915;50.832;4.462;2023-12-28T14:23:36;12.50;99.90
23681;DHT22;62915;50.832;4.462;2023-12-28T14:26:13;12.50;99.90
23681;DHT22;62915;50.832;4.462;2023-12-28T14:28:43;12.30;99.90
23681;DHT22;62915;50.832;4.462;2023-12-28T14:31:10;12.30;99.90
23681;DHT22;62915;50.832;4.462;2023-12-28T14:33:37;12.30;99.90
23681;DHT22;62915;50.832;4.462;2023-12-28T14:36:08;12.40;99.90
23681;DHT22;62915;50.832;4.462;2023-12-28T14:38:38;12.40;99.90
23681;DHT22;62915;50.832;4.462;2023-12-28T14:41:04;12.40;99.90
23681;DHT22;62915;50.832;4.462;2023-12-28T14:43:29;12.30;99.90
23681;DHT22;62915;50.832;4.462;2023-12-28T14:45:55;12.40;99.90
23681;DHT22;62915;50.832;4.462;2023-12-28T14:48:21;12.40;99.90
23681;DHT22;62915;50.832;4.462;2023-12-28T14:50:46;12.50;99.90
23681;DHT22;62915;50.832;4.462;2023-12-28T14:53:12;12.40;99.90
23681;DHT22;62915;50.832;4.462;2023-12-28T14:55:38;12.30;99.90
23681;DHT22;62915;50.832;4.462;2023-12-28T14:58:04;12.40;99.90
23681;DHT22;62915;50.832;4.462;2023-12-28T15:00:30;12.40;99.90
23681;DHT22;62915;50.832;4.462;2023-12-28T15:02:57;12.30;99.90
23681;DHT22;62915;50.832;4.462;2023-12-28T15:05:22;12.30;99.90
23681;DHT22;62915;50.832;4.462;2023-12-28T15:07:48;12.30;99.90
23681;DHT22;62915;50.832;4.462;2023-12-28T15:10:14;12.10;99.90
23681;DHT22;62915;50.832;4.462;2023-12-28T15:12:40;12.10;99.90
23681;DHT22;62915;50.832;4.462;2023-12-28T15:15:07;12.10;99.90
23681;DHT22;62915;50.832;4.462;2023-12-28T15:17:33;12.10;99.90
23681;DHT22;62915;50.832;4.462;2023-12-28T15:19:59;12.00;99.90
23681;DHT22;62915;50.832;4.462;2023-12-28T15:22:25;12.10;99.90
23681;DHT22;62915;50.832;4.462;2023-12-28T15:24:51;12.20;99.90
23681;DHT22;62915;50.832;4.462;2023-12-28T15:27:17;12.10;99.90
23681;DHT22;62915;50.832;4.462;2023-12-28T15:29:43;12.00;99.90
23681;DHT22;62915;50.832;4.462;2023-12-28T15:32:08;11.90;99.90
23681;DHT22;62915;50.832;4.462;2023-12-28T15:34:34;12.10;99.90
23681;DHT22;62915;50.832;4.462;2023-12-28T15:37:01;12.10;99.90